עמוד ראשי
METAR-TAF:

METAR-TAF

שדות תעופה :

מקנס, מרוקו

קו רוחב: 33-53N, קו אורך: 005-32W, גובה: 576מטר

תצפית מזג אוויר נוכחית

הדו"ח נערך לפני 19דקות, בשעה 13:00 UTC
רוח 9קשר מכיוון צפון-מערב, משתנה בין מערב/צפון-מערב ו צפון
טמפרטורת 32 צלסיוס
לחות 43%
לחץ 1011 hPa
ראות 10 קילומטר או יותר
ללא עננים שבסיסם נמוך מ 5000 רגל או קומולונימבוס

METAR: GMFM 251300Z 31009KT 290V360 CAVOK 32/18 Q1011 NOSIG

זמן: 14:19 (13:19 UTC)

תחזית

הדו"ח נערך לפני 8 שעות ו 19דקות, בשעה 05:00 UTC
תחזית בתוקף מ 25 ב 06 UTC עד 26 ב 12 UTC
רוח 6קשר מכיוון דרום/דרום-מזרח
ראות 10 קילומטר או יותר
ללא עננים שבסיסם נמוך מ 5000 רגל או קומולונימבוס
יעשה מ
25 ב 14 UTC עד 25 ב 18 UTC
רוח 10קשר מכיוון צפון-מערב

TAF: GMFM 250500Z 2506/2612 16006KT CAVOK BECMG 2514/2518 32010KT

תצפיות ותחזיות מזג אוויר לגבי יותר מ- 4,000 שדות תעופה ברחבי העולם. דוחות METAR ו- TAF.

התחנות הזמינות מסומנות בנקודות צהובות ואדומות על גבי המפה.

העבר את העכבר לנקודה הצבעונית על מנת לראות את שם התחנה.

לאחר מכן, לחץ כדי לראות את תוכן ואת תחזיות מזג האוויר.

כדי לשנות את המפה: לחץ על הכפתורים הירוקים עם הפלוס השחור כדי להתקרב; על הכפתור הירוק עם המקף כדי להתרחק; או בחיצים הירוקים למפות סמוכות.


METAR-TAF: